Terminal Aerodrome Forecast
Issued by NWS Shreveport, LA

Home | Current Version | Previous Version | Text Only | Print | Product List | Glossary On
Versions: 1 2 3 4 5 6 7 8 9 10 11 12 13 14
249
FTUS44 KSHV 261728
TAFTXK
TAF
KTXK 261728Z 2618/2718 06004KT P6SM VCTS SCT015CB BKN120
      TEMPO 2618/2620 VRB15G25KT 2SM TSRA BKN015CB
     FM262000 05004KT P6SM -TSRA BKN015CB BKN040
     FM270000 05003KT P6SM FEW040 SCT100 BKN250
     FM270600 VRB03KT P6SM BKN250
      TEMPO 2708/2712 4SM BR BKN010
     FM271200 07003KT P6SM SCT020 SCT250=

USA.gov is the U.S. government's official web portal to all federal, state and local government web resources and services.